Time;durP1;ratioP1;P1;durP2;ratioP2;P2;SDS_P1;SDS_P2;PMS_P1;PMS_P2;Temp;Humidity;BMP_temperature;BMP_pressure;BME280_temperature;BME280_humidity;BME280_pressure;Samples;Min_cycle;Max_cycle;Signal;HPM_P1;HPM_P2
2021/09/27 00:07:23;;;;;;;6.90;3.50;;;17.40;99.90;;;;;;20522545;28;20050;-80
2021/09/27 00:17:24;;;;;;;8.18;3.13;;;17.30;99.90;;;;;;20524080;28;20067;-79
2021/09/27 00:27:25;;;;;;;8.02;3.08;;;17.20;99.90;;;;;;20548778;28;20055;-79
2021/09/27 00:37:27;;;;;;;10.15;3.90;;;17.10;99.90;;;;;;20495517;28;20377;-80
2021/09/27 00:47:28;;;;;;;11.48;3.95;;;17.10;99.90;;;;;;20497552;28;20046;-79
2021/09/27 00:57:29;;;;;;;8.05;3.20;;;17.00;99.90;;;;;;20520299;28;20078;-80
2021/09/27 01:07:47;;;;;;;9.98;4.05;;;16.90;99.90;;;;;;20503979;28;20055;-79
2021/09/27 01:17:54;;;;;;;;;;;16.80;99.90;;;;;;20599043;28;20506;-80
2021/09/27 01:28:19;;;;;;;10.25;4.20;;;16.70;99.90;;;;;;20574748;28;20286;-79
2021/09/27 01:38:23;;;;;;;9.30;3.95;;;16.60;99.90;;;;;;20487624;28;20585;-80
2021/09/27 01:48:43;;;;;;;9.98;3.60;;;16.60;99.90;;;;;;20529685;28;20059;-80
2021/09/27 01:59:16;;;;;;;8.55;3.95;;;16.60;99.90;;;;;;20534070;28;20058;-80
2021/09/27 02:09:24;;;;;;;11.30;4.45;;;16.50;99.90;;;;;;20596730;28;20039;-80
2021/09/27 02:19:45;;;;;;;13.70;4.57;;;16.40;99.90;;;;;;20556340;28;20059;-79
2021/09/27 02:29:47;;;;;;;11.20;4.28;;;16.30;99.90;;;;;;20555518;28;20046;-80
2021/09/27 02:40:00;;;;;;;11.27;4.18;;;16.20;99.90;;;;;;20566325;28;20510;-80
2021/09/27 02:50:03;;;;;;;10.00;4.47;;;16.10;99.90;;;;;;20545944;28;20063;-80
2021/09/27 03:00:13;;;;;;;13.60;4.50;;;16.00;99.90;;;;;;20532656;28;20043;-80
2021/09/27 03:10:37;;;;;;;15.15;5.95;;;16.00;99.90;;;;;;20541798;28;20047;-80
2021/09/27 03:20:55;;;;;;;7.18;3.47;;;16.10;99.90;;;;;;20491579;28;20040;-80
2021/09/27 03:31:11;;;;;;;11.63;4.18;;;16.10;99.90;;;;;;20524594;28;20078;-80
2021/09/27 03:41:44;;;;;;;12.73;5.07;;;16.10;99.90;;;;;;20575462;28;20162;-80
2021/09/27 03:51:53;;;;;;;12.60;4.90;;;16.10;99.90;;;;;;20563604;28;20138;-79
2021/09/27 04:01:57;;;;;;;11.00;4.60;;;16.20;99.90;;;;;;20593749;28;20093;-80
2021/09/27 04:12:04;;;;;;;12.60;5.35;;;16.10;99.90;;;;;;20558318;28;20051;-80
2021/09/27 04:22:13;;;;;;;16.67;5.87;;;16.00;99.90;;;;;;20542800;28;20143;-80
2021/09/27 04:32:34;;;;;;;17.40;5.97;;;15.90;99.90;;;;;;20511071;28;21502;-80
2021/09/27 04:43:01;;;;;;;14.23;6.10;;;15.80;99.90;;;;;;20540163;28;20050;-79
2021/09/27 04:53:37;;;;;;;14.50;6.45;;;15.80;99.90;;;;;;20541057;28;20059;-79
2021/09/27 05:03:44;;;;;;;20.02;7.38;;;15.80;99.90;;;;;;20502159;28;20125;-81
2021/09/27 05:13:51;;;;;;;14.33;6.07;;;15.70;99.90;;;;;;20537124;28;20050;-80
2021/09/27 05:23:58;;;;;;;15.30;6.30;;;15.70;99.90;;;;;;20524309;28;20066;-80
2021/09/27 05:34:24;;;;;;;18.97;5.83;;;15.70;99.90;;;;;;20557918;28;20064;-80
2021/09/27 05:44:33;;;;;;;19.20;7.00;;;15.70;99.90;;;;;;20542719;28;20090;-79
2021/09/27 05:54:43;;;;;;;15.63;6.55;;;15.70;99.90;;;;;;20592448;28;20058;-82
2021/09/27 06:05:02;;;;;;;11.30;5.38;;;15.70;99.90;;;;;;20580840;28;20050;-80
2021/09/27 06:15:08;;;;;;;11.52;5.47;;;15.80;99.90;;;;;;20512388;28;20043;-80
2021/09/27 06:25:15;;;;;;;10.40;4.82;;;15.90;99.90;;;;;;20585859;28;20066;-79
2021/09/27 06:35:19;;;;;;;12.60;4.87;;;16.00;99.90;;;;;;20547889;28;20061;-79
2021/09/27 06:45:20;;;;;;;13.98;5.72;;;16.20;99.90;;;;;;20507721;28;20058;-80
2021/09/27 06:55:22;;;;;;;9.25;4.30;;;16.30;99.90;;;;;;20489282;28;20051;-79
2021/09/27 07:05:23;;;;;;;11.13;4.07;;;16.50;99.90;;;;;;20499138;28;20063;-80
2021/09/27 07:15:24;;;;;;;10.30;4.43;;;16.70;99.90;;;;;;20501908;28;20062;-80
2021/09/27 07:25:28;;;;;;;10.15;3.90;;;16.80;99.90;;;;;;20518464;28;20057;-79
2021/09/27 07:35:30;;;;;;;8.38;4.38;;;16.80;99.90;;;;;;20460824;28;20122;-79
2021/09/27 07:45:37;;;;;;;8.18;3.35;;;17.00;99.90;;;;;;20446260;28;20048;-82
2021/09/27 07:55:39;;;;;;;9.65;3.67;;;17.20;99.90;;;;;;20482817;28;20066;-79
2021/09/27 08:05:40;;;;;;;10.70;3.90;;;17.30;99.90;;;;;;20506240;28;20040;-79
2021/09/27 08:15:45;;;;;;;10.77;4.70;;;17.50;99.90;;;;;;20484029;28;20059;-80
2021/09/27 08:25:46;;;;;;;10.07;3.85;;;17.60;99.90;;;;;;20478328;28;20043;-80
2021/09/27 08:35:50;;;;;;;9.57;4.43;;;17.70;99.90;;;;;;20482006;28;20061;-80
2021/09/27 08:45:53;;;;;;;7.68;3.92;;;17.90;99.90;;;;;;20548081;28;20051;-80
2021/09/27 08:56:01;;;;;;;10.13;4.53;;;17.90;99.90;;;;;;20585382;28;20047;-80
2021/09/27 09:06:17;;;;;;;7.85;4.50;;;17.90;99.90;;;;;;20557596;28;20449;-80
2021/09/27 09:16:21;;;;;;;6.95;3.88;;;18.20;99.90;;;;;;20513969;28;20054;-81
2021/09/27 09:26:31;;;;;;;6.38;3.28;;;18.70;99.90;;;;;;20560244;28;20043;-80
2021/09/27 09:36:32;;;;;;;8.40;3.15;;;18.70;99.90;;;;;;20509480;28;20063;-81
2021/09/27 09:46:35;;;;;;;6.55;2.80;;;18.60;99.90;;;;;;20465608;28;20039;-81
2021/09/27 09:56:39;;;;;;;5.47;2.88;;;18.60;99.90;;;;;;20456746;28;20051;-80
2021/09/27 10:06:46;;;;;;;6.18;2.50;;;18.60;99.90;;;;;;20442383;28;21112;-80
2021/09/27 10:16:57;;;;;;;8.38;2.42;;;18.80;99.90;;;;;;20309113;28;20958;-80
2021/09/27 10:27:01;;;;;;;4.35;2.33;;;19.20;99.90;;;;;;20362154;28;20052;-80
2021/09/27 10:37:20;;;;;;;3.45;1.83;;;19.30;99.90;;;;;;20362233;28;20062;-81
2021/09/27 10:47:29;;;;;;;4.50;1.88;;;19.40;99.90;;;;;;20446776;28;20051;-82
2021/09/27 10:57:55;;;;;;;4.97;1.50;;;19.30;99.90;;;;;;20483859;28;20135;-80
2021/09/27 11:08:09;;;;;;;4.65;1.45;;;19.30;99.90;;;;;;20470083;28;20042;-80
2021/09/27 11:18:24;;;;;;;3.80;2.13;;;19.30;99.90;;;;;;20479830;28;20622;-80
2021/09/27 11:28:25;;;;;;;3.28;1.90;;;19.50;99.90;;;;;;20535176;28;20055;-80
2021/09/27 11:38:31;;;;;;;5.35;1.95;;;19.60;99.90;;;;;;20518148;28;20536;-80
2021/09/27 11:48:45;;;;;;;2.40;1.02;;;20.10;99.90;;;;;;20539575;28;20050;-80
2021/09/27 11:58:53;;;;;;;2.80;1.30;;;21.10;99.90;;;;;;20530043;28;20055;-80
2021/09/27 12:09:14;;;;;;;3.00;1.30;;;22.00;99.90;;;;;;20579825;28;20615;-81
2021/09/27 12:19:35;;;;;;;1.85;1.42;;;22.10;99.90;;;;;;20557636;28;20058;-79
2021/09/27 12:30:14;;;;;;;3.13;0.90;;;21.20;99.90;;;;;;20441462;28;20051;-80
2021/09/27 12:40:17;;;;;;;2.00;1.10;;;20.50;99.90;;;;;;20331401;28;20055;-80
2021/09/27 12:50:23;;;;;;;2.88;1.10;;;20.00;99.90;;;;;;20389732;28;20051;-80
2021/09/27 13:00:39;;;;;;;4.95;1.10;;;19.60;99.90;;;;;;20415961;28;20060;-81
2021/09/27 13:10:50;;;;;;;4.43;1.20;;;19.10;99.90;;;;;;20398560;28;20060;-80
2021/09/27 13:21:03;;;;;;;3.78;1.55;;;19.00;99.90;;;;;;20389633;28;20058;-81
2021/09/27 13:31:19;;;;;;;3.95;2.03;;;18.70;99.90;;;;;;20388245;28;20063;-82
2021/09/27 13:41:23;;;;;;;3.03;1.70;;;17.80;99.90;;;;;;20364054;28;20058;-82
2021/09/27 13:51:28;;;;;;;2.42;0.80;;;17.40;99.90;;;;;;20371420;28;20073;-80
2021/09/27 14:01:29;;;;;;;1.02;0.40;;;17.20;99.90;;;;;;20364064;28;20045;-80
2021/09/27 14:11:32;;;;;;;1.65;0.75;;;17.10;99.90;;;;;;20406215;28;20051;-80
2021/09/27 14:21:34;;;;;;;1.85;0.70;;;17.10;99.90;;;;;;20384738;28;20420;-80
2021/09/27 14:31:35;;;;;;;1.77;0.90;;;16.90;99.90;;;;;;20390704;28;20273;-81
2021/09/27 14:41:36;;;;;;;2.22;0.77;;;16.80;99.90;;;;;;20465730;28;20058;-80
2021/09/27 14:51:37;;;;;;;2.45;0.55;;;16.50;99.90;;;;;;20404704;28;20126;-81
2021/09/27 15:01:38;;;;;;;2.17;0.80;;;16.30;99.90;;;;;;20428163;28;20062;-80
2021/09/27 15:11:40;;;;;;;3.47;0.43;;;16.40;99.90;;;;;;20420977;28;20063;-81
2021/09/27 15:21:43;;;;;;;4.32;0.30;;;16.40;99.90;;;;;;20405915;28;20043;-81
2021/09/27 15:31:50;;;;;;;5.75;0.70;;;16.80;99.90;;;;;;20437974;28;20057;-81
2021/09/27 15:41:51;;;;;;;0.60;0.38;;;16.70;99.90;;;;;;20398663;28;20051;-81
2021/09/27 15:51:53;;;;;;;1.55;0.47;;;16.20;99.90;;;;;;20429488;28;20061;-81
2021/09/27 16:01:55;;;;;;;0.77;0.10;;;16.20;99.90;;;;;;20389311;28;20042;-81
2021/09/27 16:11:57;;;;;;;2.95;0.20;;;16.20;99.90;;;;;;20466031;28;20051;-81
2021/09/27 16:21:58;;;;;;;0.60;0.20;;;15.90;99.90;;;;;;20501455;28;20027;-81
2021/09/27 16:32:04;;;;;;;1.38;0.20;;;15.60;99.90;;;;;;20422770;28;20143;-81
2021/09/27 16:42:06;;;;;;;0.50;0.10;;;15.40;99.90;;;;;;20414376;28;20438;-83
2021/09/27 16:52:08;;;;;;;2.13;0.28;;;15.30;99.90;;;;;;20345028;28;20052;-83
2021/09/27 17:02:10;;;;;;;7.93;0.38;;;15.10;99.90;;;;;;20423652;28;20058;-81
2021/09/27 17:12:12;;;;;;;0.65;0.15;;;14.90;99.90;;;;;;20390695;28;20056;-81
2021/09/27 17:22:16;;;;;;;0.90;0.20;;;14.90;99.90;;;;;;20461421;28;20396;-81
2021/09/27 17:32:18;;;;;;;0.43;0.10;;;14.70;99.90;;;;;;20409652;28;20039;-82
2021/09/27 17:42:19;;;;;;;2.20;0.40;;;14.50;99.90;;;;;;20337739;28;20074;-82
2021/09/27 17:52:20;;;;;;;3.25;0.90;;;14.30;99.90;;;;;;20390089;28;20068;-82
2021/09/27 18:02:21;;;;;;;0.75;0.17;;;14.10;99.90;;;;;;20385930;28;20395;-81
2021/09/27 18:12:22;;;;;;;0.20;0.10;;;14.00;99.90;;;;;;20442534;28;20055;-81
2021/09/27 18:22:23;;;;;;;1.75;0.10;;;14.00;99.90;;;;;;20430699;28;20050;-81
2021/09/27 18:32:25;;;;;;;0.35;0.10;;;13.90;99.90;;;;;;20379701;28;20604;-82
2021/09/27 18:42:27;;;;;;;0.80;0.15;;;13.80;99.90;;;;;;20418087;28;20053;-82
2021/09/27 18:52:29;;;;;;;0.38;0.17;;;13.60;99.90;;;;;;20383443;28;20057;-82
2021/09/27 19:02:30;;;;;;;1.00;0.40;;;13.60;99.90;;;;;;20369744;28;20577;-80
2021/09/27 19:12:34;;;;;;;1.40;0.20;;;13.50;99.90;;;;;;20358386;28;20054;-80
2021/09/27 19:22:35;;;;;;;2.35;0.30;;;13.60;99.90;;;;;;20437119;28;20096;-80
2021/09/27 19:32:37;;;;;;;1.67;0.50;;;13.70;99.90;;;;;;20379213;28;20048;-81
2021/09/27 19:42:38;;;;;;;1.65;0.25;;;13.70;99.90;;;;;;20378700;28;20059;-81
2021/09/27 19:52:43;;;;;;;1.05;0.35;;;13.70;99.90;;;;;;20437121;28;20062;-81
2021/09/27 20:02:45;;;;;;;1.15;0.30;;;13.70;99.90;;;;;;20458205;28;20050;-81
2021/09/27 20:12:46;;;;;;;2.05;0.40;;;13.60;99.90;;;;;;20422061;28;20066;-80
2021/09/27 20:22:49;;;;;;;1.40;0.50;;;13.60;99.90;;;;;;20455460;28;20100;-81
2021/09/27 20:32:50;;;;;;;0.82;0.40;;;13.40;99.90;;;;;;20421637;28;20111;-81
2021/09/27 20:42:52;;;;;;;2.45;0.70;;;13.40;99.90;;;;;;20446808;28;20058;-82
2021/09/27 20:52:54;;;;;;;4.00;0.75;;;13.30;99.90;;;;;;20431490;28;20062;-81
2021/09/27 21:02:55;;;;;;;1.27;0.63;;;13.20;99.90;;;;;;20410561;28;20042;-81
2021/09/27 21:12:57;;;;;;;3.63;1.13;;;13.20;99.90;;;;;;20439869;28;20059;-82
2021/09/27 21:23:00;;;;;;;3.13;0.73;;;13.20;99.90;;;;;;20451518;28;20587;-82
2021/09/27 21:33:01;;;;;;;1.73;0.88;;;13.40;99.90;;;;;;20428184;28;20074;-81
2021/09/27 21:43:04;;;;;;;2.83;0.80;;;13.40;99.90;;;;;;20473344;28;20526;-81
2021/09/27 21:53:05;;;;;;;1.45;0.28;;;13.40;99.90;;;;;;20426373;28;20093;-82
2021/09/27 22:03:06;;;;;;;11.80;0.98;;;13.50;99.90;;;;;;20360405;28;20074;-82
2021/09/27 22:13:10;;;;;;;1.17;0.50;;;13.50;99.90;;;;;;20440745;28;20087;-81
2021/09/27 22:23:11;;;;;;;4.03;0.60;;;13.50;99.90;;;;;;20434865;28;20039;-82
2021/09/27 22:33:12;;;;;;;3.03;0.90;;;13.60;99.90;;;;;;20413183;28;20538;-82
2021/09/27 22:43:13;;;;;;;0.73;0.40;;;13.70;99.90;;;;;;20372459;28;20051;-82
2021/09/27 22:53:16;;;;;;;3.63;0.70;;;13.50;99.90;;;;;;20440546;28;20051;-81
2021/09/27 23:03:17;;;;;;;1.67;0.45;;;13.40;99.90;;;;;;20416652;28;20036;-82
2021/09/27 23:13:19;;;;;;;2.35;0.30;;;13.40;99.90;;;;;;20453266;28;20406;-82
2021/09/27 23:23:21;;;;;;;5.38;1.10;;;13.30;99.90;;;;;;20476907;28;20059;-81
2021/09/27 23:33:22;;;;;;;2.58;0.98;;;13.10;99.90;;;;;;20430473;28;20063;-81
2021/09/27 23:43:24;;;;;;;1.70;0.40;;;13.10;99.90;;;;;;20467882;28;20468;-82
2021/09/27 23:53:25;;;;;;;1.85;1.13;;;13.00;99.90;;;;;;20452430;28;20129;-82
